Time;durP1;ratioP1;P1;durP2;ratioP2;P2;SDS_P1;SDS_P2;PMS_P1;PMS_P2;Temp;Humidity;BMP_temperature;BMP_pressure;BME280_temperature;BME280_humidity;BME280_pressure;Samples;Min_cycle;Max_cycle;Signal;HPM_P1;HPM_P2
2022/08/06 00:04:54;;;;;;;3.63;3.30;;;23.90;74.80;;;;;;10515195;28;20188;-83
2022/08/06 00:09:56;;;;;;;4.03;3.73;;;23.90;73.50;;;;;;10497525;28;20383;-82
2022/08/06 00:14:59;;;;;;;3.90;3.57;;;23.80;75.10;;;;;;10525948;28;20226;-83
2022/08/06 00:20:03;;;;;;;4.10;3.80;;;23.80;74.60;;;;;;10511287;28;20224;-83
2022/08/06 00:25:07;;;;;;;3.57;3.43;;;23.80;74.80;;;;;;10531253;28;20224;-84
2022/08/06 00:30:10;;;;;;;3.70;3.37;;;23.80;73.70;;;;;;10512167;28;20216;-84
2022/08/06 00:35:14;;;;;;;3.60;3.40;;;23.70;73.70;;;;;;10491360;28;20222;-83
2022/08/06 00:40:19;;;;;;;4.03;3.60;;;23.70;72.60;;;;;;10512762;28;20692;-84
2022/08/06 00:45:21;;;;;;;3.77;3.57;;;23.70;72.00;;;;;;10513740;28;20223;-84
2022/08/06 00:50:25;;;;;;;4.00;3.67;;;23.60;72.40;;;;;;10512252;28;20223;-83
2022/08/06 00:55:27;;;;;;;3.40;3.20;;;23.50;71.50;;;;;;10528505;28;20245;-83
2022/08/06 01:00:29;;;;;;;3.57;3.37;;;23.50;72.70;;;;;;10505047;28;20211;-84
2022/08/06 01:05:33;;;;;;;3.67;3.50;;;23.50;72.80;;;;;;10489867;28;20641;-83
2022/08/06 01:10:35;;;;;;;5.17;3.77;;;23.50;70.90;;;;;;10549743;22;20252;-83
2022/08/06 01:15:40;;;;;;;3.27;2.93;;;23.50;70.90;;;;;;10525584;28;20227;-82
2022/08/06 01:20:52;;;;;;;3.30;3.20;;;23.50;69.60;;;;;;10518011;28;20221;-83
2022/08/06 01:26:14;;;;;;;3.30;3.10;;;23.50;69.50;;;;;;10499969;28;20200;-83
2022/08/06 01:31:27;;;;;;;3.40;3.30;;;23.40;69.70;;;;;;10540613;28;20238;-81
2022/08/06 01:36:37;;;;;;;3.67;3.30;;;23.40;69.80;;;;;;10523197;28;20211;-80
2022/08/06 01:41:44;;;;;;;4.03;3.70;;;23.40;67.50;;;;;;10508361;28;20220;-81
2022/08/06 01:46:50;;;;;;;3.53;3.23;;;23.30;69.40;;;;;;10528676;28;20195;-81
2022/08/06 01:51:55;;;;;;;3.80;3.50;;;23.30;69.10;;;;;;10525655;28;20216;-80
2022/08/06 01:57:00;;;;;;;3.07;2.87;;;23.30;70.40;;;;;;10518166;28;20227;-81
2022/08/06 02:02:08;;;;;;;3.50;3.30;;;23.20;67.80;;;;;;10539820;28;20257;-81
2022/08/06 02:07:12;;;;;;;3.30;3.00;;;23.20;68.30;;;;;;10546715;28;20207;-80
2022/08/06 02:12:18;;;;;;;4.33;3.30;;;23.10;67.10;;;;;;10519813;28;20247;-81
2022/08/06 02:17:25;;;;;;;3.20;3.10;;;23.00;68.90;;;;;;10538279;28;20281;-80
2022/08/06 02:22:29;;;;;;;3.27;3.07;;;23.00;68.40;;;;;;10514233;28;20220;-81
2022/08/06 02:27:33;;;;;;;3.53;3.23;;;23.00;68.00;;;;;;10514352;28;20223;-83
2022/08/06 02:32:37;;;;;;;3.20;3.00;;;22.90;68.50;;;;;;10540463;28;20222;-80
2022/08/06 02:37:44;;;;;;;3.60;3.40;;;22.90;67.90;;;;;;10540687;28;20601;-80
2022/08/06 02:42:53;;;;;;;3.60;3.30;;;22.80;68.30;;;;;;10539795;28;20238;-82
2022/08/06 02:48:05;;;;;;;3.37;3.17;;;22.70;68.00;;;;;;10533263;28;20327;-81
2022/08/06 02:53:09;;;;;;;3.20;3.10;;;22.70;67.50;;;;;;10530583;28;20227;-82
2022/08/06 02:58:16;;;;;;;3.70;3.40;;;22.60;67.80;;;;;;10533748;28;20243;-82
2022/08/06 03:03:22;;;;;;;3.90;3.60;;;22.60;69.50;;;;;;10533906;28;20210;-81
2022/08/06 03:08:27;;;;;;;3.80;3.60;;;22.60;69.60;;;;;;10539176;28;20250;-82
2022/08/06 03:13:30;;;;;;;3.93;3.40;;;22.60;71.00;;;;;;10516973;28;20214;-81
2022/08/06 03:18:35;;;;;;;3.53;3.33;;;22.60;67.70;;;;;;10551416;28;20258;-81
2022/08/06 03:23:38;;;;;;;3.50;3.30;;;22.60;70.70;;;;;;10531642;28;20267;-81
2022/08/06 03:28:41;;;;;;;4.27;3.97;;;22.60;69.60;;;;;;10525915;28;20725;-81
2022/08/06 03:33:45;;;;;;;4.10;3.70;;;22.50;69.30;;;;;;10521066;28;20254;-81
2022/08/06 03:39:01;;;;;;;3.77;3.57;;;22.50;69.50;;;;;;10511493;28;20220;-81
2022/08/06 03:44:04;;;;;;;5.40;3.27;;;22.50;69.90;;;;;;10519493;28;20569;-81
2022/08/06 03:49:12;;;;;;;4.10;3.90;;;22.50;70.00;;;;;;10489722;28;20220;-79
2022/08/06 03:54:18;;;;;;;3.93;3.73;;;22.50;68.90;;;;;;10507247;28;20208;-80
2022/08/06 03:59:22;;;;;;;4.40;4.10;;;22.50;69.90;;;;;;10508600;28;20215;-79
2022/08/06 04:04:27;;;;;;;4.00;3.60;;;22.40;70.50;;;;;;10535133;28;20628;-80
2022/08/06 04:09:32;;;;;;;4.17;3.87;;;22.40;70.60;;;;;;10486071;28;20640;-80
2022/08/06 04:14:35;;;;;;;3.50;3.30;;;22.40;69.30;;;;;;10516930;28;20705;-82
2022/08/06 04:19:40;;;;;;;3.40;3.30;;;22.40;70.90;;;;;;10537380;28;20220;-81
2022/08/06 04:24:42;;;;;;;3.87;3.20;;;22.30;71.00;;;;;;10514106;28;20263;-81
2022/08/06 04:29:46;;;;;;;3.73;3.53;;;22.30;70.20;;;;;;10537734;28;20278;-80
2022/08/06 04:34:51;;;;;;;4.10;3.80;;;22.30;70.60;;;;;;10506064;28;20211;-81
2022/08/06 04:39:53;;;;;;;3.63;3.33;;;22.30;70.20;;;;;;10520814;28;20249;-80
2022/08/06 04:44:56;;;;;;;3.70;3.50;;;22.30;70.40;;;;;;10504150;28;20196;-81
2022/08/06 04:49:59;;;;;;;3.80;3.60;;;22.30;69.80;;;;;;10520802;28;20290;-82
2022/08/06 04:55:02;;;;;;;3.70;3.50;;;22.20;71.40;;;;;;10516194;28;20272;-81
2022/08/06 05:00:05;;;;;;;3.40;3.20;;;22.30;71.70;;;;;;10524783;28;20295;-82
2022/08/06 05:05:10;;;;;;;4.30;4.10;;;22.30;70.00;;;;;;10543394;28;20336;-81
2022/08/06 05:10:12;;;;;;;4.23;4.03;;;22.30;71.40;;;;;;10531927;28;20255;-81
2022/08/06 05:15:20;;;;;;;3.73;3.53;;;22.30;70.70;;;;;;10525349;28;20283;-82
2022/08/06 05:20:25;;;;;;;3.80;3.60;;;22.30;72.00;;;;;;10503917;28;20223;-81
2022/08/06 05:25:28;;;;;;;3.50;3.20;;;22.40;70.20;;;;;;10536353;28;20210;-81
2022/08/06 05:30:30;;;;;;;4.20;3.60;;;22.40;72.20;;;;;;10541069;28;20236;-81
2022/08/06 05:35:34;;;;;;;3.40;3.20;;;22.40;72.30;;;;;;10499093;28;20263;-81
2022/08/06 05:40:37;;;;;;;3.03;2.83;;;22.50;72.30;;;;;;10505300;28;20243;-81
2022/08/06 05:45:41;;;;;;;4.43;3.43;;;22.50;72.00;;;;;;10513519;28;20222;-82
2022/08/06 05:50:50;;;;;;;3.90;3.60;;;22.50;71.50;;;;;;10544031;28;20247;-82
2022/08/06 05:55:57;;;;;;;4.10;3.80;;;22.40;71.60;;;;;;10497195;28;20224;-80
2022/08/06 06:01:02;;;;;;;3.87;3.67;;;22.40;73.30;;;;;;10518168;28;20224;-81
2022/08/06 06:06:07;;;;;;;4.17;3.83;;;22.30;71.50;;;;;;10520080;28;20259;-81
2022/08/06 06:11:10;;;;;;;4.23;3.93;;;22.30;73.20;;;;;;10534505;28;20227;-81
2022/08/06 06:16:22;;;;;;;3.80;3.60;;;22.30;71.20;;;;;;10541235;28;20216;-81
2022/08/06 06:21:37;;;;;;;4.80;4.50;;;22.20;73.50;;;;;;10526517;28;20227;-80
2022/08/06 06:26:46;;;;;;;4.40;4.10;;;22.30;73.10;;;;;;10531266;28;20195;-80
2022/08/06 06:32:00;;;;;;;4.50;4.20;;;22.40;72.10;;;;;;10534300;28;20253;-81
2022/08/06 06:37:11;;;;;;;4.80;4.50;;;22.50;70.90;;;;;;10524998;28;20220;-81
2022/08/06 06:42:18;;;;;;;4.20;3.90;;;22.60;70.50;;;;;;10528088;28;20247;-80
2022/08/06 06:47:29;;;;;;;4.27;3.87;;;22.50;71.10;;;;;;10542796;28;20214;-80
2022/08/06 06:52:37;;;;;;;3.80;3.60;;;22.50;71.80;;;;;;10537672;28;20242;-80
2022/08/06 06:57:52;;;;;;;3.87;3.67;;;22.50;72.60;;;;;;10498042;28;20744;-81
2022/08/06 07:02:56;;;;;;;5.80;3.90;;;22.60;72.00;;;;;;10526545;28;20519;-80
2022/08/06 07:08:01;;;;;;;4.70;4.30;;;22.70;72.50;;;;;;10510520;28;20204;-79
2022/08/06 07:13:04;;;;;;;3.67;3.47;;;22.80;71.50;;;;;;10525833;28;20229;-82
2022/08/06 07:18:08;;;;;;;4.30;4.00;;;23.00;72.50;;;;;;10532499;28;20272;-81
2022/08/06 07:23:11;;;;;;;5.33;3.93;;;23.20;73.30;;;;;;10511227;28;20196;-82
2022/08/06 07:28:15;;;;;;;7.53;4.33;;;23.30;70.90;;;;;;10529475;28;20742;-82
2022/08/06 07:33:19;;;;;;;7.00;4.40;;;23.40;70.80;;;;;;10530611;28;20245;-80
2022/08/06 07:38:25;;;;;;;4.70;4.20;;;23.50;70.30;;;;;;10514594;28;20251;-80
2022/08/06 07:43:31;;;;;;;3.97;3.77;;;23.80;69.60;;;;;;10535879;28;20210;-79
2022/08/06 07:48:37;;;;;;;3.90;3.53;;;23.90;69.80;;;;;;10514236;28;20303;-78
2022/08/06 07:53:43;;;;;;;4.07;3.77;;;24.30;69.30;;;;;;10538047;28;20562;-78
2022/08/06 07:58:46;;;;;;;4.80;4.50;;;24.60;69.00;;;;;;10537063;28;20219;-78
2022/08/06 08:09:13;;;;;;;3.73;3.53;;;25.00;67.50;;;;;;10486071;28;20222;-78
2022/08/06 08:14:18;;;;;;;4.63;4.00;;;24.90;65.30;;;;;;10529427;28;20675;-77
2022/08/06 08:19:22;;;;;;;4.07;2.30;;;24.70;66.60;;;;;;10492744;28;20299;-78
2022/08/06 08:24:27;;;;;;;3.77;3.47;;;24.40;65.90;;;;;;10473906;28;20204;-78
2022/08/06 08:29:29;;;;;;;4.57;3.97;;;24.20;67.20;;;;;;10520187;28;20220;-78
2022/08/06 08:34:31;;;;;;;3.90;3.70;;;24.20;66.40;;;;;;10516846;28;20719;-78
2022/08/06 08:39:34;;;;;;;3.87;3.50;;;24.10;66.30;;;;;;10516194;28;20216;-78
2022/08/06 08:44:37;;;;;;;3.67;3.57;;;24.10;67.20;;;;;;10496832;28;20627;-77
2022/08/06 08:49:41;;;;;;;3.63;3.43;;;24.20;67.70;;;;;;10512170;28;20668;-78
2022/08/06 08:54:49;;;;;;;4.70;3.83;;;24.90;66.20;;;;;;10489160;28;20210;-78
2022/08/06 08:59:52;;;;;;;5.00;3.90;;;25.70;64.40;;;;;;10501811;28;20730;-77
2022/08/06 09:04:55;;;;;;;4.23;3.93;;;25.80;61.70;;;;;;10515398;28;20200;-78
2022/08/06 09:09:59;;;;;;;4.40;4.20;;;26.20;62.20;;;;;;10519022;28;20227;-79
2022/08/06 09:15:01;;;;;;;3.70;3.50;;;26.20;62.60;;;;;;10532482;28;20214;-78
2022/08/06 09:20:05;;;;;;;3.40;3.10;;;26.10;61.90;;;;;;10498054;28;20322;-78
2022/08/06 09:25:35;;;;;;;3.80;3.60;;;26.20;62.80;;;;;;10509736;28;20279;-78
2022/08/06 09:30:38;;;;;;;3.87;3.67;;;26.40;59.70;;;;;;10540112;28;20228;-78
2022/08/06 09:35:41;;;;;;;3.70;3.50;;;26.80;60.00;;;;;;10508426;28;20331;-79
2022/08/06 09:41:03;;;;;;;5.77;4.17;;;26.80;58.70;;;;;;10514356;28;20510;-80
2022/08/06 09:46:06;;;;;;;3.30;3.10;;;26.90;58.90;;;;;;10530757;28;20231;-78
2022/08/06 09:51:22;;;;;;;3.70;3.50;;;27.00;59.50;;;;;;10523979;28;20227;-78
2022/08/06 09:56:26;;;;;;;3.30;3.20;;;26.90;59.10;;;;;;10501591;28;20569;-79
2022/08/06 10:01:28;;;;;;;3.90;3.60;;;27.20;59.00;;;;;;10507975;28;20293;-79
2022/08/06 10:06:31;;;;;;;5.80;3.57;;;27.50;57.60;;;;;;10508943;28;20276;-78
2022/08/06 10:11:36;;;;;;;3.70;3.50;;;27.90;56.40;;;;;;10514830;28;20246;-78
2022/08/06 10:16:38;;;;;;;4.30;4.00;;;28.30;56.40;;;;;;10512194;28;20629;-80
2022/08/06 10:21:40;;;;;;;4.07;3.87;;;28.70;55.30;;;;;;10489430;28;20725;-80
2022/08/06 10:26:44;;;;;;;3.73;3.53;;;28.50;55.80;;;;;;10463442;28;20281;-79
2022/08/06 10:31:48;;;;;;;3.97;3.67;;;28.40;56.40;;;;;;10484574;28;20534;-78
2022/08/06 10:36:55;;;;;;;2.63;2.53;;;28.20;56.00;;;;;;10527990;28;20591;-80
2022/08/06 10:42:00;;;;;;;3.23;3.13;;;27.90;56.60;;;;;;10489423;28;20602;-79
2022/08/06 10:47:04;;;;;;;3.40;3.20;;;27.60;56.60;;;;;;10503074;28;20641;-79
2022/08/06 10:52:07;;;;;;;6.10;3.67;;;27.40;56.80;;;;;;10512752;28;20305;-79
2022/08/06 10:57:12;;;;;;;3.30;3.17;;;27.30;56.60;;;;;;10511955;28;20312;-79
2022/08/06 11:02:26;;;;;;;4.17;3.67;;;27.40;55.20;;;;;;10489994;28;20346;-79
2022/08/06 11:07:46;;;;;;;3.60;3.40;;;27.30;55.70;;;;;;10511752;28;20196;-78
2022/08/06 11:12:54;;;;;;;3.53;3.23;;;27.20;56.90;;;;;;10505732;28;20192;-79
2022/08/06 11:18:04;;;;;;;3.60;3.40;;;27.20;56.00;;;;;;10508753;28;20228;-79
2022/08/06 11:23:24;;;;;;;2.63;2.53;;;26.90;56.50;;;;;;10505557;28;20238;-80
2022/08/06 11:29:01;;;;;;;3.93;3.63;;;26.70;57.40;;;;;;10493647;28;20223;-79
2022/08/06 11:34:05;;;;;;;4.00;3.80;;;26.70;56.80;;;;;;10483103;28;20294;-79
2022/08/06 11:39:07;;;;;;;4.10;3.90;;;26.80;56.80;;;;;;10470828;28;20588;-79
2022/08/06 11:44:12;;;;;;;4.10;3.83;;;26.90;56.40;;;;;;10510382;28;20233;-78
2022/08/06 11:49:20;;;;;;;2.30;2.20;;;27.00;57.10;;;;;;10524954;28;20644;-79
2022/08/06 11:54:26;;;;;;;3.90;3.60;;;27.10;57.00;;;;;;10488532;28;20217;-79
2022/08/06 11:59:31;;;;;;;4.23;4.03;;;27.10;56.70;;;;;;10500817;28;20311;-79
2022/08/06 12:04:42;;;;;;;4.10;3.80;;;27.20;57.10;;;;;;10523488;28;20554;-79
2022/08/06 12:09:45;;;;;;;4.57;4.37;;;27.30;55.30;;;;;;10531261;28;20232;-79
2022/08/06 12:14:49;;;;;;;4.77;3.93;;;27.10;56.70;;;;;;10494376;28;20688;-79
2022/08/06 12:19:53;;;;;;;4.93;3.37;;;26.80;56.00;;;;;;10522906;28;20725;-79
2022/08/06 12:24:58;;;;;;;3.43;3.30;;;26.40;56.60;;;;;;10512740;28;20251;-79
2022/08/06 12:30:05;;;;;;;3.60;3.40;;;26.00;56.90;;;;;;10491345;28;20224;-79
2022/08/06 12:35:18;;;;;;;3.67;3.50;;;26.00;57.80;;;;;;10524412;28;20273;-79
2022/08/06 12:40:26;;;;;;;4.70;4.27;;;26.10;57.60;;;;;;10524888;28;20221;-79
2022/08/06 12:45:32;;;;;;;4.20;3.93;;;26.20;57.20;;;;;;10536552;28;20203;-80
2022/08/06 12:50:36;;;;;;;3.90;3.70;;;26.30;56.70;;;;;;10510686;28;20336;-79
2022/08/06 12:55:45;;;;;;;4.67;4.47;;;26.20;56.10;;;;;;10513629;28;20213;-79
2022/08/06 13:00:57;;;;;;;5.40;5.00;;;25.80;56.40;;;;;;10504286;28;20215;-79
2022/08/06 13:06:02;;;;;;;3.80;3.53;;;25.60;57.50;;;;;;10516477;28;20195;-79
2022/08/06 13:11:05;;;;;;;4.07;3.87;;;25.50;57.90;;;;;;10522936;28;20225;-79
2022/08/06 13:16:11;;;;;;;4.70;4.30;;;25.40;57.30;;;;;;10508943;28;20225;-79
2022/08/06 13:21:18;;;;;;;3.80;3.60;;;25.40;57.30;;;;;;10512059;28;20223;-81
2022/08/06 13:26:22;;;;;;;4.70;3.70;;;25.40;57.10;;;;;;10494479;28;20284;-79
2022/08/06 13:31:26;;;;;;;4.37;3.97;;;25.30;56.50;;;;;;10523849;28;20302;-79
2022/08/06 13:36:29;;;;;;;4.80;4.20;;;25.50;56.90;;;;;;10506169;28;20671;-79
2022/08/06 13:41:32;;;;;;;4.53;4.13;;;25.50;57.70;;;;;;10514927;28;20223;-79
2022/08/06 13:46:43;;;;;;;3.90;3.70;;;25.60;57.00;;;;;;10497403;28;20203;-79
2022/08/06 13:51:46;;;;;;;3.70;3.50;;;25.60;55.80;;;;;;10495478;28;20215;-79
2022/08/06 13:56:49;;;;;;;4.13;3.83;;;25.60;56.70;;;;;;10487539;28;20223;-80
2022/08/06 14:01:52;;;;;;;4.40;4.10;;;25.70;57.90;;;;;;10511805;28;20576;-79
2022/08/06 14:06:56;;;;;;;3.57;3.37;;;25.90;56.40;;;;;;10517391;28;20203;-81
2022/08/06 14:11:59;;;;;;;3.50;3.30;;;25.90;55.20;;;;;;10509472;28;20261;-80
2022/08/06 14:17:03;;;;;;;4.07;3.87;;;25.90;56.00;;;;;;10484123;28;20674;-78
2022/08/06 14:22:06;;;;;;;3.47;3.27;;;25.80;57.00;;;;;;10501607;28;20263;-80
2022/08/06 14:27:08;;;;;;;4.23;2.80;;;25.80;57.30;;;;;;10515516;28;20237;-79
2022/08/06 14:32:12;;;;;;;4.43;4.03;;;25.90;55.60;;;;;;10497852;28;20216;-79
2022/08/06 14:37:14;;;;;;;3.43;3.30;;;25.90;57.30;;;;;;10479697;28;20256;-80
2022/08/06 14:47:42;;;;;;;3.80;3.50;;;26.00;56.20;;;;;;10509697;28;20180;-79
2022/08/06 14:52:47;;;;;;;4.33;3.30;;;26.10;54.70;;;;;;10474571;28;20717;-79
2022/08/06 14:57:49;;;;;;;4.40;4.10;;;26.10;54.90;;;;;;10506185;28;20241;-79
2022/08/06 15:02:52;;;;;;;3.57;3.13;;;26.20;55.40;;;;;;10494624;28;20724;-79
2022/08/06 15:07:54;;;;;;;2.77;2.67;;;26.20;53.90;;;;;;10491615;28;20652;-79
2022/08/06 15:12:56;;;;;;;3.63;3.53;;;26.10;54.30;;;;;;10499380;28;20196;-80
2022/08/06 15:18:00;;;;;;;3.47;3.27;;;26.10;54.20;;;;;;10506553;28;20261;-80
2022/08/06 15:23:02;;;;;;;3.33;3.13;;;26.10;53.70;;;;;;10505862;28;20601;-79
2022/08/06 15:28:18;;;;;;;3.60;3.40;;;26.10;55.20;;;;;;10501275;28;20292;-80
2022/08/06 15:33:22;;;;;;;3.60;3.40;;;26.00;53.90;;;;;;10482491;28;20204;-81
2022/08/06 15:38:25;;;;;;;3.90;3.70;;;25.90;54.60;;;;;;10454241;28;20217;-80
2022/08/06 15:43:28;;;;;;;2.17;2.00;;;26.00;55.30;;;;;;10509057;28;20325;-81
2022/08/06 15:48:32;;;;;;;3.33;3.23;;;26.00;53.50;;;;;;10519535;28;20227;-81
2022/08/06 15:53:34;;;;;;;4.00;3.80;;;26.10;55.00;;;;;;10503979;28;20279;-81
2022/08/06 15:58:36;;;;;;;3.07;2.70;;;26.30;52.70;;;;;;10504694;28;20596;-81
2022/08/06 16:03:40;;;;;;;3.30;3.13;;;26.30;53.00;;;;;;10524457;28;20208;-81
2022/08/06 16:08:42;;;;;;;3.60;3.30;;;26.20;53.20;;;;;;10524779;28;20254;-81
2022/08/06 16:13:44;;;;;;;3.20;3.10;;;26.10;54.30;;;;;;10527973;28;20208;-81
2022/08/06 16:18:47;;;;;;;3.23;2.33;;;26.10;53.30;;;;;;10522450;28;20250;-81
2022/08/06 16:23:50;;;;;;;2.93;2.83;;;26.10;53.90;;;;;;10525957;28;20192;-81
2022/08/06 16:28:52;;;;;;;2.57;2.47;;;26.00;52.90;;;;;;10525657;28;20786;-81
2022/08/06 16:34:00;;;;;;;3.53;3.33;;;25.90;54.40;;;;;;10527417;28;20741;-81
2022/08/06 16:39:03;;;;;;;3.50;3.30;;;25.80;54.20;;;;;;10498155;28;20228;-81
2022/08/06 16:44:05;;;;;;;3.73;3.50;;;25.80;53.20;;;;;;10538256;28;20205;-81
2022/08/06 16:49:08;;;;;;;2.80;2.70;;;25.70;53.70;;;;;;10518103;28;20216;-81
2022/08/06 16:54:11;;;;;;;3.90;3.60;;;25.70;54.30;;;;;;10506351;28;20573;-81
2022/08/06 16:59:13;;;;;;;3.50;3.20;;;25.70;55.80;;;;;;10526181;28;20224;-81
2022/08/06 17:04:16;;;;;;;2.93;2.73;;;25.80;51.70;;;;;;10521845;28;20215;-81
2022/08/06 17:09:19;;;;;;;3.30;3.10;;;25.80;54.10;;;;;;10546701;28;20231;-80
2022/08/06 17:14:22;;;;;;;3.60;3.30;;;25.80;51.80;;;;;;10513438;28;20192;-80
2022/08/06 17:19:25;;;;;;;3.70;3.50;;;25.80;52.70;;;;;;10512916;28;20228;-80
2022/08/06 17:24:29;;;;;;;3.60;3.50;;;25.80;53.20;;;;;;10514787;28;20196;-82
2022/08/06 17:29:31;;;;;;;2.40;2.20;;;25.90;52.40;;;;;;10507844;28;20304;-82
2022/08/06 17:34:34;;;;;;;3.80;3.50;;;25.90;51.20;;;;;;10514489;28;20241;-83
2022/08/06 17:39:37;;;;;;;2.80;2.70;;;25.90;52.60;;;;;;10514494;28;20640;-82
2022/08/06 17:44:39;;;;;;;3.17;3.07;;;26.00;51.50;;;;;;10497086;28;20630;-81
2022/08/06 17:49:43;;;;;;;2.20;2.07;;;26.00;52.10;;;;;;10515622;28;20227;-81
2022/08/06 17:54:46;;;;;;;3.10;2.90;;;26.00;50.70;;;;;;10512857;28;20204;-81
2022/08/06 17:59:49;;;;;;;2.90;2.77;;;26.00;48.30;;;;;;10484874;28;20310;-81
2022/08/06 18:04:52;;;;;;;3.50;3.20;;;25.90;50.90;;;;;;10512623;28;20204;-81
2022/08/06 18:15:15;;;;;;;3.20;3.10;;;25.80;51.60;;;;;;10499222;28;20730;-81
2022/08/06 18:20:19;;;;;;;3.03;2.93;;;25.80;46.60;;;;;;10519375;28;20445;-81
2022/08/06 18:25:21;;;;;;;2.90;2.70;;;25.70;47.20;;;;;;10502819;28;20196;-80
2022/08/06 18:30:23;;;;;;;3.10;2.90;;;25.60;45.40;;;;;;10509210;28;20550;-81
2022/08/06 18:35:27;;;;;;;2.47;2.37;;;25.50;46.50;;;;;;10492379;28;20204;-81
2022/08/06 18:40:29;;;;;;;3.17;2.97;;;25.30;47.20;;;;;;10500844;28;20268;-81
2022/08/06 18:45:31;;;;;;;3.10;2.80;;;25.20;50.60;;;;;;10471919;28;20193;-81
2022/08/06 18:50:34;;;;;;;2.93;2.70;;;25.10;47.10;;;;;;10516743;28;20249;-81
2022/08/06 18:55:36;;;;;;;1.97;1.87;;;25.00;46.40;;;;;;10483011;28;20212;-80
2022/08/06 19:00:40;;;;;;;3.00;2.80;;;24.90;48.10;;;;;;10465268;28;21419;-81
2022/08/06 19:05:43;;;;;;;3.30;3.10;;;24.80;48.60;;;;;;10477807;28;20493;-83
2022/08/06 19:10:46;;;;;;;17.53;15.67;;;24.70;49.00;;;;;;10481613;28;20667;-82
2022/08/06 19:15:48;;;;;;;3.60;3.33;;;24.60;50.10;;;;;;10483583;28;20583;-82
2022/08/06 19:20:51;;;;;;;5.93;5.43;;;24.60;50.30;;;;;;10493159;28;20267;-83
2022/08/06 19:25:53;;;;;;;4.20;3.90;;;24.40;51.10;;;;;;10502178;28;20226;-83
2022/08/06 19:30:55;;;;;;;3.53;3.13;;;24.30;50.80;;;;;;10477906;28;20216;-83
2022/08/06 19:35:59;;;;;;;3.10;2.90;;;24.20;50.60;;;;;;10486036;28;20281;-82
2022/08/06 19:41:01;;;;;;;3.77;3.47;;;24.00;52.10;;;;;;10507220;28;20224;-83
2022/08/06 19:46:04;;;;;;;3.27;3.07;;;23.90;52.40;;;;;;10488507;28;20227;-82
2022/08/06 19:51:07;;;;;;;5.30;3.30;;;23.80;52.30;;;;;;10497318;28;20254;-83
2022/08/06 19:56:10;;;;;;;3.93;3.10;;;23.70;51.80;;;;;;10489461;28;20644;-83
2022/08/06 20:01:14;;;;;;;3.10;2.73;;;23.50;52.30;;;;;;10504842;28;20220;-82
2022/08/06 20:06:18;;;;;;;4.50;2.57;;;23.40;51.20;;;;;;10501434;28;20644;-79
2022/08/06 20:11:22;;;;;;;3.40;3.10;;;23.30;51.80;;;;;;10512820;28;20240;-82
2022/08/06 20:16:24;;;;;;;3.50;3.30;;;23.20;51.00;;;;;;10489868;28;20193;-82
2022/08/06 20:21:27;;;;;;;3.03;2.93;;;23.00;51.20;;;;;;10510445;28;20220;-79
2022/08/06 20:26:29;;;;;;;3.27;3.17;;;22.90;52.00;;;;;;10485924;28;20246;-80
2022/08/06 20:31:32;;;;;;;2.90;2.80;;;22.80;52.20;;;;;;10496429;28;20220;-80
2022/08/06 20:36:36;;;;;;;2.77;2.37;;;22.70;51.50;;;;;;10484377;28;20560;-80
2022/08/06 20:41:38;;;;;;;4.20;2.60;;;22.60;51.60;;;;;;10476535;28;20220;-81
2022/08/06 20:46:40;;;;;;;3.67;3.33;;;22.60;51.70;;;;;;10482988;28;20717;-80
2022/08/06 20:51:44;;;;;;;3.20;3.00;;;22.40;52.00;;;;;;10508810;28;20220;-81
2022/08/06 20:56:48;;;;;;;3.00;2.70;;;22.40;52.60;;;;;;10517107;28;20208;-82
2022/08/06 21:01:50;;;;;;;3.10;3.00;;;22.30;52.00;;;;;;10489883;28;20220;-80
2022/08/06 21:06:54;;;;;;;3.30;3.10;;;22.30;53.10;;;;;;10506546;28;20279;-81
2022/08/06 21:11:56;;;;;;;3.23;3.10;;;22.20;52.70;;;;;;10480142;28;20592;-81
2022/08/06 21:16:58;;;;;;;4.00;3.60;;;22.10;52.30;;;;;;10500150;28;20287;-79
2022/08/06 21:22:01;;;;;;;2.90;2.80;;;22.00;52.20;;;;;;10508090;28;20228;-80
2022/08/06 21:27:04;;;;;;;2.73;2.60;;;22.00;53.30;;;;;;10534224;28;20192;-79
2022/08/06 21:32:06;;;;;;;3.37;3.13;;;21.90;51.90;;;;;;10531702;28;20223;-79
2022/08/06 21:37:10;;;;;;;4.07;3.30;;;21.80;52.40;;;;;;10526892;28;20219;-81
2022/08/06 21:42:12;;;;;;;4.10;3.77;;;21.70;52.40;;;;;;10512025;28;20236;-80
2022/08/06 21:47:14;;;;;;;3.40;2.80;;;21.60;52.70;;;;;;10526390;28;20192;-81
2022/08/06 21:52:19;;;;;;;3.70;3.50;;;21.60;52.00;;;;;;10500831;28;20225;-81
2022/08/06 21:57:21;;;;;;;3.80;3.60;;;21.50;52.50;;;;;;10526044;28;20846;-80
2022/08/06 22:02:23;;;;;;;3.70;3.40;;;21.40;53.40;;;;;;10501335;28;20285;-81
2022/08/06 22:07:28;;;;;;;3.43;3.20;;;21.30;52.80;;;;;;10509617;28;20192;-80
2022/08/06 22:12:30;;;;;;;3.77;3.57;;;21.20;52.90;;;;;;10519435;28;20337;-80
2022/08/06 22:17:32;;;;;;;3.57;3.40;;;21.20;53.60;;;;;;10533504;28;20528;-80
2022/08/06 22:22:35;;;;;;;4.17;2.90;;;21.10;53.40;;;;;;10491630;28;20298;-80
2022/08/06 22:27:37;;;;;;;3.83;3.57;;;21.10;54.30;;;;;;10508997;28;20196;-80
2022/08/06 22:32:39;;;;;;;3.47;3.27;;;21.10;54.00;;;;;;10514429;28;20711;-81
2022/08/06 22:37:43;;;;;;;3.97;3.77;;;21.10;54.00;;;;;;10505018;28;20289;-80
2022/08/06 22:42:45;;;;;;;3.63;3.37;;;21.10;54.40;;;;;;10479758;28;20216;-81
2022/08/06 22:47:48;;;;;;;3.50;3.30;;;21.00;53.90;;;;;;10524896;28;20192;-81
2022/08/06 22:52:51;;;;;;;3.10;2.90;;;21.00;54.70;;;;;;10503592;28;20241;-81
2022/08/06 22:57:53;;;;;;;3.20;3.07;;;20.90;54.70;;;;;;10484258;28;20236;-80
2022/08/06 23:02:56;;;;;;;2.70;2.60;;;20.90;54.70;;;;;;10476333;28;20206;-80
2022/08/06 23:08:00;;;;;;;3.07;2.80;;;20.90;54.60;;;;;;10507635;28;20292;-81
2022/08/06 23:13:02;;;;;;;2.70;2.60;;;20.90;54.70;;;;;;10515063;28;20235;-81
2022/08/06 23:18:04;;;;;;;2.90;2.70;;;20.80;54.30;;;;;;10526561;28;20244;-80
2022/08/06 23:23:07;;;;;;;3.30;3.00;;;20.70;54.60;;;;;;10520615;28;20609;-81
2022/08/06 23:28:09;;;;;;;2.90;2.80;;;20.70;55.20;;;;;;10498054;28;20330;-81
2022/08/06 23:33:12;;;;;;;3.50;3.30;;;20.70;55.10;;;;;;10515552;28;20282;-81
2022/08/06 23:38:15;;;;;;;3.03;2.83;;;20.60;54.80;;;;;;10513502;28;20601;-81
2022/08/06 23:43:17;;;;;;;3.30;3.10;;;20.50;54.50;;;;;;10478881;28;20250;-81
2022/08/06 23:48:19;;;;;;;3.20;3.00;;;20.50;54.90;;;;;;10531911;28;20212;-80
2022/08/06 23:53:23;;;;;;;3.43;2.90;;;20.40;55.50;;;;;;10528183;28;20212;-81
2022/08/06 23:58:25;;;;;;;4.90;3.10;;;20.40;55.70;;;;;;10498354;28;20648;-81
